createdAt,value
2023-04-07T00:01:30.253Z,101053.44
2023-04-07T00:03:58.810Z,101052.28
2023-04-07T00:06:27.477Z,101046.34
2023-04-07T00:08:55.745Z,101043.59
2023-04-07T00:11:23.611Z,101044.06
2023-04-07T00:13:53.342Z,101045.53
2023-04-07T00:16:21.767Z,101045.09
2023-04-07T00:18:56.458Z,101038.31
2023-04-07T00:21:27.340Z,101044.13
2023-04-07T00:23:55.746Z,101044.56
2023-04-07T00:26:25.473Z,101049.31
2023-04-07T00:28:54.897Z,101041.69
2023-04-07T00:31:22.918Z,101036.69
2023-04-07T00:33:51.276Z,101037.34
2023-04-07T00:36:26.006Z,101044.91
2023-04-07T00:38:54.297Z,101043.56
2023-04-07T00:41:22.361Z,101032.69
2023-04-07T00:43:51.407Z,101043.63
2023-04-07T00:46:23.948Z,101039.63
2023-04-07T00:48:52.213Z,101031.00
2023-04-07T00:51:22.348Z,101054.16
2023-04-07T00:53:50.721Z,101046.97
2023-04-07T00:56:18.760Z,101040.97
2023-04-07T00:58:46.711Z,101039.78
2023-04-07T01:01:20.288Z,101037.16
2023-04-07T01:03:57.932Z,101036.25
2023-04-07T01:06:32.697Z,101041.81
2023-04-07T01:09:06.201Z,101034.91
2023-04-07T01:11:42.855Z,101029.22
2023-04-07T01:14:20.009Z,101028.34
2023-04-07T01:16:58.410Z,101028.22
2023-04-07T01:19:35.349Z,101026.91
2023-04-07T01:22:08.906Z,101023.22
2023-04-07T01:24:54.685Z,101027.38
2023-04-07T01:27:39.467Z,101026.63
2023-04-07T01:30:12.855Z,101028.47
2023-04-07T01:32:42.848Z,101026.84
2023-04-07T01:35:14.604Z,101027.78
2023-04-07T01:37:46.611Z,101020.00
2023-04-07T01:40:16.113Z,101017.50
2023-04-07T01:42:48.264Z,101024.97
2023-04-07T01:45:19.414Z,101020.22
2023-04-07T01:47:48.620Z,101027.44
2023-04-07T01:50:17.460Z,101034.09
2023-04-07T01:52:55.245Z,101031.19
2023-04-07T01:55:24.365Z,101025.91
2023-04-07T01:58:06.612Z,101021.72
2023-04-07T02:00:37.660Z,101023.88
2023-04-07T02:03:21.194Z,101031.16
2023-04-07T02:05:53.548Z,101024.53
2023-04-07T02:08:27.138Z,101025.59
2023-04-07T02:10:58.456Z,101018.19
2023-04-07T02:13:33.990Z,101025.28
2023-04-07T02:16:03.597Z,101026.13
2023-04-07T02:18:33.648Z,101028.44
2023-04-07T02:21:03.373Z,101029.84
2023-04-07T02:23:36.484Z,101029.91
2023-04-07T02:26:06.653Z,101027.03
2023-04-07T02:28:50.406Z,101035.28
2023-04-07T02:31:22.720Z,101024.34
2023-04-07T02:33:50.838Z,101023.59
2023-04-07T02:36:18.786Z,101027.22
2023-04-07T02:38:46.824Z,101022.72
2023-04-07T02:41:14.864Z,101023.81
2023-04-07T02:43:42.942Z,101027.66
2023-04-07T02:46:10.909Z,101030.44
2023-04-07T02:48:40.327Z,101034.34
2023-04-07T02:51:10.966Z,101032.47
2023-04-07T02:53:38.852Z,101036.84
2023-04-07T02:56:07.650Z,101032.25
2023-04-07T02:58:35.895Z,101029.13
2023-04-07T03:01:03.980Z,101028.88
2023-04-07T03:03:33.841Z,101034.66
2023-04-07T03:06:18.101Z,101025.81
2023-04-07T03:09:06.684Z,101025.34
2023-04-07T03:11:34.824Z,101028.69
2023-04-07T03:14:02.819Z,101023.63
2023-04-07T03:16:32.962Z,101026.34
2023-04-07T03:19:06.537Z,101029.63
2023-04-07T03:21:40.692Z,101037.75
2023-04-07T03:24:10.056Z,101038.00
2023-04-07T03:26:38.338Z,101038.22
2023-04-07T03:29:10.267Z,101038.84
2023-04-07T03:31:40.627Z,101030.38
2023-04-07T03:34:08.676Z,101030.06
2023-04-07T03:36:36.531Z,101032.25
2023-04-07T03:39:07.987Z,101044.16
2023-04-07T03:41:36.072Z,101036.19
2023-04-07T03:44:04.365Z,101031.56
2023-04-07T03:46:33.765Z,101038.31
2023-04-07T03:49:02.192Z,101029.31
2023-04-07T03:51:33.044Z,101030.75
2023-04-07T03:54:02.803Z,101033.41
2023-04-07T03:56:40.980Z,101040.66
2023-04-07T03:59:09.493Z,101040.84
2023-04-07T04:01:44.422Z,101036.06
2023-04-07T04:04:16.280Z,101040.97
2023-04-07T04:06:44.617Z,101043.44
2023-04-07T04:09:32.933Z,101041.88
2023-04-07T04:12:02.572Z,101043.53
2023-04-07T04:14:32.493Z,101048.28
2023-04-07T04:17:05.543Z,101053.91
2023-04-07T04:19:46.681Z,101054.25
2023-04-07T04:22:44.767Z,101054.88
2023-04-07T04:25:16.291Z,101053.91
2023-04-07T04:27:49.987Z,101050.72
2023-04-07T04:30:27.096Z,101065.31
2023-04-07T04:32:58.698Z,101065.47
2023-04-07T04:35:37.142Z,101057.44
2023-04-07T04:38:09.728Z,101062.25
2023-04-07T04:40:40.660Z,101056.16
2023-04-07T04:43:10.672Z,101067.03
2023-04-07T04:45:41.100Z,101088.31
2023-04-07T04:48:12.137Z,101076.38
2023-04-07T04:50:40.306Z,101080.09
2023-04-07T04:53:12.386Z,101077.78
2023-04-07T04:55:52.246Z,101072.78
2023-04-07T04:58:28.503Z,101081.69
2023-04-07T05:00:59.614Z,101086.88
2023-04-07T05:03:47.957Z,101074.25
2023-04-07T05:06:24.138Z,101075.69
2023-04-07T05:08:53.881Z,101088.19
2023-04-07T05:11:26.134Z,101093.81
2023-04-07T05:13:58.180Z,101103.28
2023-04-07T05:16:26.372Z,101088.03
2023-04-07T05:18:54.637Z,101092.22
2023-04-07T05:21:23.231Z,101095.44
2023-04-07T05:23:57.865Z,101089.28
2023-04-07T05:26:26.132Z,101099.88
2023-04-07T05:28:54.831Z,101095.50
2023-04-07T05:31:26.930Z,101089.84
2023-04-07T05:33:57.946Z,101089.88
2023-04-07T05:36:29.954Z,101087.47
2023-04-07T05:38:58.754Z,101091.31
2023-04-07T05:41:28.083Z,101098.00
2023-04-07T05:43:56.516Z,101098.38
2023-04-07T05:46:25.940Z,101103.03
2023-04-07T05:48:59.162Z,101092.84
2023-04-07T05:51:31.508Z,101110.19
2023-04-07T05:54:03.999Z,101101.13
2023-04-07T05:56:32.685Z,101100.66
2023-04-07T05:59:01.917Z,101097.66
2023-04-07T06:01:31.438Z,101104.56
2023-04-07T06:04:00.718Z,101110.59
2023-04-07T06:06:31.414Z,101113.16
2023-04-07T06:08:59.734Z,101110.34
2023-04-07T06:11:28.296Z,101112.34
2023-04-07T06:13:56.336Z,101109.44
2023-04-07T06:16:25.188Z,101113.16
2023-04-07T06:18:54.745Z,101125.13
2023-04-07T06:21:22.699Z,101125.47
2023-04-07T06:23:51.087Z,101125.94
2023-04-07T06:26:19.314Z,101128.22
2023-04-07T06:28:47.181Z,101131.66
2023-04-07T06:31:16.653Z,101128.44
2023-04-07T06:33:44.703Z,101123.81
2023-04-07T06:36:16.537Z,101131.78
2023-04-07T06:38:44.570Z,101132.19
2023-04-07T06:41:19.626Z,101139.13
2023-04-07T06:43:49.291Z,101142.84
2023-04-07T06:46:17.471Z,101138.28
2023-04-07T06:48:45.622Z,101154.44
2023-04-07T06:51:13.480Z,101143.63
2023-04-07T06:53:44.222Z,101145.81
2023-04-07T06:56:13.113Z,101145.38
2023-04-07T06:58:41.159Z,101146.72
2023-04-07T07:01:08.982Z,101146.88
2023-04-07T07:03:39.829Z,101140.22
2023-04-07T07:06:08.043Z,101142.63
2023-04-07T07:08:36.061Z,101147.34
2023-04-07T07:11:05.642Z,101150.63
2023-04-07T07:13:33.472Z,101144.28
2023-04-07T07:16:01.524Z,101151.16
2023-04-07T07:18:31.562Z,101147.38
2023-04-07T07:20:59.723Z,101149.94
2023-04-07T07:23:27.610Z,101157.03
2023-04-07T07:25:59.573Z,101154.38
2023-04-07T07:28:29.254Z,101157.47
2023-04-07T07:30:57.370Z,101162.84
2023-04-07T07:33:25.280Z,101166.09
2023-04-07T07:35:53.566Z,101162.59
2023-04-07T07:38:21.762Z,101160.47
2023-04-07T07:40:50.205Z,101169.00
2023-04-07T07:43:19.013Z,101161.78
2023-04-07T07:45:48.402Z,101170.25
2023-04-07T07:48:16.490Z,101175.28
2023-04-07T07:50:44.672Z,101171.34
2023-04-07T07:53:12.463Z,101178.41
2023-04-07T07:55:40.251Z,101175.16
2023-04-07T07:58:08.344Z,101167.38
2023-04-07T08:00:36.275Z,101176.16
2023-04-07T08:03:05.933Z,101178.19
2023-04-07T08:05:33.880Z,101171.38
2023-04-07T08:08:03.003Z,101174.91
2023-04-07T08:10:31.050Z,101186.41
2023-04-07T08:12:58.806Z,101180.03
2023-04-07T08:15:26.758Z,101191.25
2023-04-07T08:17:56.060Z,101186.53
2023-04-07T08:20:25.644Z,101178.28
2023-04-07T08:22:53.716Z,101180.84
2023-04-07T08:25:22.035Z,101183.06
2023-04-07T08:27:55.122Z,101182.94
2023-04-07T08:30:23.425Z,101178.38
2023-04-07T08:32:51.477Z,101203.28
2023-04-07T08:35:19.408Z,101198.38
2023-04-07T08:37:49.536Z,101197.78
2023-04-07T08:40:18.437Z,101192.38
2023-04-07T08:42:48.958Z,101192.75
2023-04-07T08:45:18.414Z,101194.09
2023-04-07T08:47:48.302Z,101206.22
2023-04-07T08:50:18.705Z,101201.00
2023-04-07T08:52:51.343Z,101208.28
2023-04-07T08:55:19.419Z,101200.09
2023-04-07T08:57:47.803Z,101199.41
2023-04-07T09:00:17.023Z,101196.22
2023-04-07T09:02:46.422Z,101201.28
2023-04-07T09:05:15.508Z,101209.56
2023-04-07T09:07:44.292Z,101197.44
2023-04-07T09:10:13.707Z,101200.00
2023-04-07T09:12:42.404Z,101193.81
2023-04-07T09:15:10.777Z,101202.78
2023-04-07T09:17:38.913Z,101194.25
2023-04-07T09:20:07.901Z,101195.66
2023-04-07T09:22:37.502Z,101192.53
2023-04-07T09:25:15.788Z,101189.25
2023-04-07T09:27:55.924Z,101201.81
2023-04-07T09:30:24.934Z,101207.81
2023-04-07T09:32:53.015Z,101203.97
2023-04-07T09:35:23.438Z,101193.91
2023-04-07T09:38:05.399Z,101204.19
2023-04-07T09:40:35.060Z,101206.19
2023-04-07T09:43:04.328Z,101196.84
2023-04-07T09:45:36.173Z,101185.94
2023-04-07T09:48:08.804Z,101196.56
2023-04-07T09:50:38.477Z,101189.25
2023-04-07T09:53:07.143Z,101189.72
2023-04-07T09:55:36.856Z,101191.97
2023-04-07T09:58:06.389Z,101189.75
2023-04-07T10:00:34.865Z,101196.97
2023-04-07T10:03:03.581Z,101196.06
2023-04-07T10:05:32.737Z,101193.53
2023-04-07T10:08:02.151Z,101204.84
2023-04-07T10:10:31.939Z,101200.94
2023-04-07T10:13:01.502Z,101206.09
2023-04-07T10:15:29.409Z,101201.31
2023-04-07T10:17:57.898Z,101183.72
2023-04-07T10:20:26.858Z,101202.13
2023-04-07T10:23:02.458Z,101194.59
2023-04-07T10:25:31.478Z,101195.03
2023-04-07T10:28:06.709Z,101196.78
2023-04-07T10:30:35.671Z,101189.41
2023-04-07T10:33:03.638Z,101191.88
2023-04-07T10:36:05.894Z,101187.91
2023-04-07T10:38:33.943Z,101190.41
2023-04-07T10:41:01.879Z,101192.00
2023-04-07T10:43:41.853Z,101201.94
2023-04-07T10:46:09.816Z,101201.75
2023-04-07T10:48:37.724Z,101199.41
2023-04-07T10:51:18.872Z,101204.34
2023-04-07T10:54:22.307Z,101202.66
2023-04-07T10:57:13.358Z,101186.63
2023-04-07T11:00:04.351Z,101189.13
2023-04-07T11:02:34.028Z,101197.34
2023-04-07T11:05:02.811Z,101190.06
2023-04-07T11:07:49.875Z,101196.19
2023-04-07T11:10:19.428Z,101191.25
2023-04-07T11:13:03.877Z,101207.25
2023-04-07T11:15:34.072Z,101200.09
2023-04-07T11:18:15.923Z,101193.19
2023-04-07T11:20:46.301Z,101200.69
2023-04-07T11:23:14.922Z,101202.66
2023-04-07T11:25:45.450Z,101200.09
2023-04-07T11:28:14.559Z,101197.06
2023-04-07T11:30:52.857Z,101195.44
2023-04-07T11:33:22.555Z,101193.19
2023-04-07T11:35:56.651Z,101194.75
2023-04-07T11:38:26.089Z,101198.94
2023-04-07T11:40:54.601Z,101204.94
2023-04-07T11:43:24.039Z,101206.34
2023-04-07T11:46:13.161Z,101200.00
2023-04-07T11:48:42.992Z,101187.78
2023-04-07T11:51:17.896Z,101196.09
2023-04-07T11:53:46.148Z,101201.47
2023-04-07T11:56:18.543Z,101186.81
2023-04-07T11:58:49.827Z,101194.06
2023-04-07T12:01:19.183Z,101204.53
2023-04-07T12:03:58.902Z,101189.75
2023-04-07T12:06:30.941Z,101190.91
2023-04-07T12:08:58.984Z,101192.97
2023-04-07T12:11:27.118Z,101200.69
2023-04-07T12:13:55.195Z,101203.50
2023-04-07T12:16:24.749Z,101188.72
2023-04-07T12:18:53.345Z,101194.13
2023-04-07T12:21:21.420Z,101206.47
2023-04-07T12:23:50.338Z,101207.44
2023-04-07T12:26:19.027Z,101213.63
2023-04-07T12:28:48.499Z,101202.69
2023-04-07T12:31:16.347Z,101209.59
2023-04-07T12:33:45.743Z,101215.63
2023-04-07T12:36:14.035Z,101195.72
2023-04-07T12:38:42.490Z,101198.88
2023-04-07T12:41:10.443Z,101199.16
2023-04-07T12:43:38.358Z,101199.66
2023-04-07T12:46:06.386Z,101208.78
2023-04-07T12:48:34.430Z,101198.66
2023-04-07T12:51:03.914Z,101191.88
2023-04-07T12:53:32.513Z,101186.97
2023-04-07T12:56:00.288Z,101199.16
2023-04-07T12:58:28.179Z,101195.25
2023-04-07T13:00:56.799Z,101204.94
2023-04-07T13:03:25.065Z,101197.44
2023-04-07T13:05:54.965Z,101203.97
2023-04-07T13:08:24.134Z,101201.66
2023-04-07T13:10:51.853Z,101199.34
2023-04-07T13:13:23.874Z,101186.41
2023-04-07T13:15:54.650Z,101204.75
2023-04-07T13:18:23.428Z,101190.59
2023-04-07T13:21:05.494Z,101196.84
2023-04-07T13:23:43.877Z,101195.56
2023-04-07T13:26:12.155Z,101198.84
2023-04-07T13:28:39.985Z,101188.53
2023-04-07T13:31:07.847Z,101196.53
2023-04-07T13:33:37.663Z,101192.56
2023-04-07T13:36:05.859Z,101197.97
2023-04-07T13:38:33.852Z,101192.13
2023-04-07T13:41:03.937Z,101189.56
2023-04-07T13:43:31.832Z,101190.06
2023-04-07T13:45:59.711Z,101181.09
2023-04-07T13:48:27.638Z,101189.56
2023-04-07T13:50:55.548Z,101196.78
2023-04-07T13:53:23.603Z,101204.94
2023-04-07T13:55:51.349Z,101200.13
2023-04-07T13:58:20.513Z,101186.28
2023-04-07T14:00:48.351Z,101188.47
2023-04-07T14:03:16.468Z,101192.03
2023-04-07T14:05:44.306Z,101187.81
2023-04-07T14:08:12.132Z,101177.22
2023-04-07T14:10:40.574Z,101184.44
2023-04-07T14:13:08.391Z,101191.66
2023-04-07T14:15:37.586Z,101180.34
2023-04-07T14:18:06.334Z,101185.94
2023-04-07T14:20:34.397Z,101179.25
2023-04-07T14:23:02.558Z,101188.16
2023-04-07T14:25:30.388Z,101189.22
2023-04-07T14:27:58.547Z,101185.72
2023-04-07T14:30:26.924Z,101186.41
2023-04-07T14:32:58.512Z,101187.75
2023-04-07T14:35:26.657Z,101192.31
2023-04-07T14:37:55.589Z,101187.00
2023-04-07T14:40:23.407Z,101183.50
2023-04-07T14:43:06.503Z,101197.03
2023-04-07T14:45:36.149Z,101185.06
2023-04-07T14:48:16.582Z,101186.78
2023-04-07T14:50:46.119Z,101197.19
2023-04-07T14:53:14.662Z,101185.06
2023-04-07T14:55:42.751Z,101197.13
2023-04-07T14:58:10.651Z,101195.84
2023-04-07T15:00:38.472Z,101193.47
2023-04-07T15:03:08.009Z,101206.56
2023-04-07T15:05:36.069Z,101193.41
2023-04-07T15:08:03.886Z,101196.09
2023-04-07T15:10:35.416Z,101197.94
2023-04-07T15:13:03.620Z,101192.91
2023-04-07T15:15:31.525Z,101209.06
2023-04-07T15:17:59.980Z,101196.91
2023-04-07T15:20:29.364Z,101206.69
2023-04-07T15:22:57.731Z,101198.31
2023-04-07T15:25:25.579Z,101193.63
2023-04-07T15:27:53.493Z,101197.97
2023-04-07T15:30:21.461Z,101195.41
2023-04-07T15:32:59.056Z,101193.22
2023-04-07T15:35:26.970Z,101183.44
2023-04-07T15:37:56.414Z,101201.94
2023-04-07T15:40:24.605Z,101197.56
2023-04-07T15:42:52.405Z,101199.03
2023-04-07T15:45:20.349Z,101197.34
2023-04-07T15:47:48.153Z,101192.72
2023-04-07T15:50:16.033Z,101197.91
2023-04-07T15:52:43.832Z,101199.03
2023-04-07T15:55:13.228Z,101209.69
2023-04-07T15:57:41.272Z,101205.69
2023-04-07T16:00:10.335Z,101213.47
2023-04-07T16:02:38.608Z,101203.50
2023-04-07T16:05:08.039Z,101202.81
2023-04-07T16:07:36.409Z,101208.25
2023-04-07T16:10:08.031Z,101210.72
2023-04-07T16:12:37.883Z,101203.63
2023-04-07T16:15:06.799Z,101220.50
2023-04-07T16:17:34.624Z,101216.00
2023-04-07T16:20:03.278Z,101216.03
2023-04-07T16:22:31.162Z,101224.59
2023-04-07T16:24:59.149Z,101219.84
2023-04-07T16:27:27.101Z,101231.84
2023-04-07T16:29:56.952Z,101225.03
2023-04-07T16:32:24.880Z,101223.47
2023-04-07T16:34:52.739Z,101225.19
2023-04-07T16:37:20.558Z,101237.53
2023-04-07T16:39:48.391Z,101239.00
2023-04-07T16:42:16.156Z,101249.56
2023-04-07T16:44:43.945Z,101245.16
2023-04-07T16:47:13.076Z,101256.56
2023-04-07T16:49:41.079Z,101254.69
2023-04-07T16:52:10.017Z,101250.13
2023-04-07T16:54:38.148Z,101259.97
2023-04-07T16:57:06.101Z,101255.69
2023-04-07T16:59:34.565Z,101263.53
2023-04-07T17:02:08.214Z,101269.22
2023-04-07T17:04:37.873Z,101284.75
2023-04-07T17:07:06.349Z,101285.06
2023-04-07T17:09:34.988Z,101284.16
2023-04-07T17:12:03.974Z,101288.00
2023-04-07T17:14:31.892Z,101291.34
2023-04-07T17:16:59.806Z,101290.06
2023-04-07T17:19:28.061Z,101295.66
2023-04-07T17:21:57.562Z,101304.75
2023-04-07T17:24:25.325Z,101304.63
2023-04-07T17:26:53.386Z,101309.47
2023-04-07T17:29:26.078Z,101317.97
2023-04-07T17:31:53.882Z,101316.78
2023-04-07T17:34:21.739Z,101322.44
2023-04-07T17:36:49.556Z,101330.59
2023-04-07T17:39:19.275Z,101327.19
2023-04-07T17:41:47.817Z,101337.66
2023-04-07T17:44:16.102Z,101339.28
2023-04-07T17:46:44.096Z,101343.13
2023-04-07T17:49:12.416Z,101357.03
2023-04-07T17:51:40.273Z,101356.09
2023-04-07T17:54:08.081Z,101357.78
2023-04-07T17:56:37.996Z,101363.03
2023-04-07T17:59:09.046Z,101367.28
2023-04-07T18:01:37.445Z,101366.81
2023-04-07T18:04:06.680Z,101370.50
2023-04-07T18:06:35.147Z,101379.03
2023-04-07T18:09:04.767Z,101390.06
2023-04-07T18:11:33.851Z,101394.00
2023-04-07T18:14:02.969Z,101394.72
2023-04-07T18:16:30.925Z,101405.16
2023-04-07T18:19:00.418Z,101400.06
2023-04-07T18:21:29.429Z,101407.72
2023-04-07T18:23:57.325Z,101408.91
2023-04-07T18:26:25.391Z,101412.00
2023-04-07T18:28:53.420Z,101413.31
2023-04-07T18:31:22.718Z,101417.38
2023-04-07T18:33:51.016Z,101425.06
2023-04-07T18:36:19.085Z,101428.34
2023-04-07T18:38:47.189Z,101425.03
2023-04-07T18:41:16.115Z,101426.03
2023-04-07T18:43:47.276Z,101433.72
2023-04-07T18:46:15.577Z,101441.44
2023-04-07T18:48:44.788Z,101447.91
2023-04-07T18:51:12.919Z,101452.41
2023-04-07T18:53:40.801Z,101453.19
2023-04-07T18:56:08.729Z,101453.41
2023-04-07T18:58:43.665Z,101456.41
2023-04-07T19:01:12.222Z,101451.31
2023-04-07T19:03:42.061Z,101460.31
2023-04-07T19:06:14.772Z,101456.81
2023-04-07T19:08:43.605Z,101466.41
2023-04-07T19:11:11.754Z,101474.03
2023-04-07T19:13:40.459Z,101477.59
2023-04-07T19:16:08.728Z,101477.16
2023-04-07T19:18:36.697Z,101476.03
2023-04-07T19:21:05.101Z,101484.41
2023-04-07T19:23:35.400Z,101486.97
2023-04-07T19:26:03.412Z,101500.66
2023-04-07T19:28:33.726Z,101498.38
2023-04-07T19:31:02.660Z,101500.06
2023-04-07T19:33:30.669Z,101508.56
2023-04-07T19:35:58.766Z,101502.94
2023-04-07T19:38:26.632Z,101506.28
2023-04-07T19:40:56.102Z,101501.44
2023-04-07T19:43:23.863Z,101501.84
2023-04-07T19:45:51.761Z,101504.09
2023-04-07T19:48:20.210Z,101505.69
2023-04-07T19:50:49.608Z,101505.59
2023-04-07T19:53:18.008Z,101518.75
2023-04-07T19:55:47.013Z,101529.66
2023-04-07T19:58:18.755Z,101506.34
2023-04-07T20:00:49.662Z,101523.56
2023-04-07T20:05:45.357Z,101537.44
2023-04-07T20:08:16.280Z,101535.78
2023-04-07T20:10:44.189Z,101535.38
2023-04-07T20:13:12.024Z,101543.22
2023-04-07T20:15:41.128Z,101538.09
2023-04-07T20:18:09.029Z,101531.19
2023-04-07T20:20:37.634Z,101527.25
2023-04-07T20:23:05.542Z,101534.44
2023-04-07T20:25:35.564Z,101533.78
2023-04-07T20:28:03.310Z,101536.38
2023-04-07T20:30:31.305Z,101533.00
2023-04-07T20:33:00.563Z,101547.72
2023-04-07T20:35:28.405Z,101549.09
2023-04-07T20:37:56.322Z,101553.19
2023-04-07T20:40:24.180Z,101558.03
2023-04-07T20:42:52.652Z,101557.94
2023-04-07T20:45:22.191Z,101562.56
2023-04-07T20:47:50.499Z,101560.03
2023-04-07T20:50:19.989Z,101570.03
2023-04-07T20:52:47.940Z,101563.75
2023-04-07T20:55:16.263Z,101564.78
2023-04-07T20:57:44.469Z,101564.53
2023-04-07T21:00:13.201Z,101578.56
2023-04-07T21:02:41.791Z,101573.69
2023-04-07T21:05:10.892Z,101579.00
2023-04-07T21:07:40.141Z,101575.38
2023-04-07T21:10:09.706Z,101586.19
2023-04-07T21:12:37.693Z,101582.41
2023-04-07T21:15:06.620Z,101579.94
2023-04-07T21:17:34.726Z,101579.34
2023-04-07T21:20:04.094Z,101591.06
2023-04-07T21:22:32.127Z,101586.72
2023-04-07T21:25:01.371Z,101577.72
2023-04-07T21:27:30.280Z,101587.25
2023-04-07T21:29:58.066Z,101586.47
2023-04-07T21:32:26.663Z,101589.47
2023-04-07T21:34:54.725Z,101578.34
2023-04-07T21:37:23.495Z,101584.00
2023-04-07T21:39:53.919Z,101591.84
2023-04-07T21:42:23.177Z,101593.88
2023-04-07T21:44:51.109Z,101599.91
2023-04-07T21:47:18.989Z,101593.59
2023-04-07T21:49:47.172Z,101593.72
2023-04-07T21:52:17.269Z,101593.38
2023-04-07T21:54:45.644Z,101595.94
2023-04-07T21:57:13.617Z,101603.47
2023-04-07T21:59:42.902Z,101594.44
2023-04-07T22:02:10.916Z,101603.16
2023-04-07T22:04:38.797Z,101602.09
2023-04-07T22:07:08.194Z,101601.28
2023-04-07T22:09:36.912Z,101598.84
2023-04-07T22:12:04.794Z,101599.41
2023-04-07T22:14:32.591Z,101598.03
2023-04-07T22:17:01.781Z,101606.22
2023-04-07T22:19:29.657Z,101612.63
2023-04-07T22:21:57.512Z,101608.63
2023-04-07T22:24:25.394Z,101606.31
2023-04-07T22:26:53.870Z,101606.94
2023-04-07T22:29:21.705Z,101610.03
2023-04-07T22:31:49.629Z,101621.47
2023-04-07T22:34:19.075Z,101612.13
2023-04-07T22:36:46.995Z,101613.88
2023-04-07T22:39:14.858Z,101615.41
2023-04-07T22:41:42.763Z,101613.88
2023-04-07T22:44:10.569Z,101613.97
2023-04-07T22:46:38.455Z,101617.59
2023-04-07T22:49:06.499Z,101617.16
2023-04-07T22:51:35.963Z,101626.13
2023-04-07T22:54:04.003Z,101624.41
2023-04-07T22:56:32.391Z,101630.03
2023-04-07T22:59:05.299Z,101624.41
2023-04-07T23:01:33.733Z,101624.69
2023-04-07T23:04:01.578Z,101622.44
2023-04-07T23:06:29.516Z,101622.69
2023-04-07T23:08:58.791Z,101623.22
2023-04-07T23:11:26.632Z,101619.38
2023-04-07T23:13:54.412Z,101629.88
2023-04-07T23:16:22.198Z,101629.28
2023-04-07T23:18:50.380Z,101629.28
2023-04-07T23:21:18.245Z,101633.25
2023-04-07T23:23:45.992Z,101636.13
2023-04-07T23:26:15.444Z,101625.91
2023-04-07T23:28:43.322Z,101628.03
2023-04-07T23:31:11.028Z,101631.38
2023-04-07T23:33:38.746Z,101626.19
2023-04-07T23:36:07.140Z,101623.69
2023-04-07T23:38:36.317Z,101631.06
2023-04-07T23:41:04.394Z,101640.84
2023-04-07T23:43:34.117Z,101633.09
2023-04-07T23:46:02.821Z,101638.38
2023-04-07T23:48:34.206Z,101640.66
2023-04-07T23:51:02.147Z,101635.88
2023-04-07T23:53:29.888Z,101639.75
2023-04-07T23:55:57.962Z,101634.88
2023-04-07T23:58:25.808Z,101634.66
